sensor_id;sensor_type;location;lat;lon;timestamp;pressure;altitude;pressure_sealevel;temperature;humidity
25080;BME280;13071;48.868;9.996;2023-03-17T00:02:21;96342.09;;;4.24;79.60
25080;BME280;13071;48.868;9.996;2023-03-17T00:04:48;96341.09;;;4.20;79.61
25080;BME280;13071;48.868;9.996;2023-03-17T00:07:17;96341.19;;;4.15;79.29
25080;BME280;13071;48.868;9.996;2023-03-17T00:09:43;96344.38;;;4.17;79.48
25080;BME280;13071;48.868;9.996;2023-03-17T00:12:10;96332.56;;;4.18;79.64
25080;BME280;13071;48.868;9.996;2023-03-17T00:14:38;96331.66;;;4.09;79.93
25080;BME280;13071;48.868;9.996;2023-03-17T00:17:05;96334.81;;;4.11;79.76
25080;BME280;13071;48.868;9.996;2023-03-17T00:19:33;96327.69;;;4.06;79.51
25080;BME280;13071;48.868;9.996;2023-03-17T00:22:01;96330.16;;;4.03;79.71
25080;BME280;13071;48.868;9.996;2023-03-17T00:24:31;96326.06;;;3.91;80.15
25080;BME280;13071;48.868;9.996;2023-03-17T00:26:58;96326.06;;;3.91;80.07
25080;BME280;13071;48.868;9.996;2023-03-17T00:29:25;96323.38;;;3.91;79.87
25080;BME280;13071;48.868;9.996;2023-03-17T00:31:52;96332.28;;;3.73;80.28
25080;BME280;13071;48.868;9.996;2023-03-17T00:34:19;96336.75;;;3.78;80.36
25080;BME280;13071;48.868;9.996;2023-03-17T00:36:48;96323.28;;;3.83;80.26
25080;BME280;13071;48.868;9.996;2023-03-17T00:39:16;96322.47;;;3.82;80.19
25080;BME280;13071;48.868;9.996;2023-03-17T00:41:44;96320.78;;;3.73;80.58
25080;BME280;13071;48.868;9.996;2023-03-17T00:44:11;96310.53;;;3.61;80.89
25080;BME280;13071;48.868;9.996;2023-03-17T00:46:39;96319.69;;;3.74;80.78
25080;BME280;13071;48.868;9.996;2023-03-17T00:49:12;96312.47;;;3.88;80.18
25080;BME280;13071;48.868;9.996;2023-03-17T00:51:40;96310.28;;;3.90;80.04
25080;BME280;13071;48.868;9.996;2023-03-17T00:54:08;96309.13;;;3.96;79.18
25080;BME280;13071;48.868;9.996;2023-03-17T00:56:36;96294.56;;;4.02;79.65
25080;BME280;13071;48.868;9.996;2023-03-17T00:59:14;96290.88;;;3.98;79.49
25080;BME280;13071;48.868;9.996;2023-03-17T01:01:44;96290.38;;;3.96;79.75
25080;BME280;13071;48.868;9.996;2023-03-17T01:04:12;96286.19;;;3.90;79.72
25080;BME280;13071;48.868;9.996;2023-03-17T01:06:40;96283.69;;;3.80;80.10
25080;BME280;13071;48.868;9.996;2023-03-17T01:09:07;96283.41;;;3.81;80.32
25080;BME280;13071;48.868;9.996;2023-03-17T01:11:37;96277.16;;;3.72;80.74
25080;BME280;13071;48.868;9.996;2023-03-17T01:14:05;96270.13;;;3.76;80.83
25080;BME280;13071;48.868;9.996;2023-03-17T01:16:31;96268.75;;;3.79;80.65
25080;BME280;13071;48.868;9.996;2023-03-17T01:18:58;96270.31;;;3.80;80.49
25080;BME280;13071;48.868;9.996;2023-03-17T01:21:25;96254.56;;;3.78;80.48
25080;BME280;13071;48.868;9.996;2023-03-17T01:23:51;96263.16;;;3.75;80.88
25080;BME280;13071;48.868;9.996;2023-03-17T01:26:19;96261.47;;;3.66;81.31
25080;BME280;13071;48.868;9.996;2023-03-17T01:28:45;96261.88;;;3.73;81.04
25080;BME280;13071;48.868;9.996;2023-03-17T01:31:13;96262.19;;;3.71;81.02
25080;BME280;13071;48.868;9.996;2023-03-17T01:33:40;96252.19;;;3.77;80.53
25080;BME280;13071;48.868;9.996;2023-03-17T01:36:08;96259.13;;;3.78;80.32
25080;BME280;13071;48.868;9.996;2023-03-17T01:38:36;96254.25;;;3.80;80.47
25080;BME280;13071;48.868;9.996;2023-03-17T01:41:03;96248.31;;;3.83;80.09
25080;BME280;13071;48.868;9.996;2023-03-17T01:43:30;96245.13;;;3.81;80.33
25080;BME280;13071;48.868;9.996;2023-03-17T01:46:23;96249.91;;;3.84;80.35
25080;BME280;13071;48.868;9.996;2023-03-17T01:49:21;96248.13;;;3.79;80.61
25080;BME280;13071;48.868;9.996;2023-03-17T01:51:55;96241.16;;;3.65;81.60
25080;BME280;13071;48.868;9.996;2023-03-17T01:54:27;96241.38;;;3.82;80.97
25080;BME280;13071;48.868;9.996;2023-03-17T01:56:58;96237.53;;;3.88;81.09
25080;BME280;13071;48.868;9.996;2023-03-17T01:59:32;96227.91;;;3.87;80.94
25080;BME280;13071;48.868;9.996;2023-03-17T02:02:03;96233.56;;;3.99;81.05
25080;BME280;13071;48.868;9.996;2023-03-17T02:04:31;96231.78;;;3.95;80.65
25080;BME280;13071;48.868;9.996;2023-03-17T02:06:59;96226.44;;;3.95;80.78
25080;BME280;13071;48.868;9.996;2023-03-17T02:09:27;96228.69;;;4.01;80.71
25080;BME280;13071;48.868;9.996;2023-03-17T02:11:54;96233.06;;;3.97;80.79
25080;BME280;13071;48.868;9.996;2023-03-17T02:14:21;96229.78;;;3.86;81.53
25080;BME280;13071;48.868;9.996;2023-03-17T02:16:48;96224.31;;;3.78;81.53
25080;BME280;13071;48.868;9.996;2023-03-17T02:19:16;96225.22;;;3.87;81.29
25080;BME280;13071;48.868;9.996;2023-03-17T02:21:45;96233.16;;;3.92;81.45
25080;BME280;13071;48.868;9.996;2023-03-17T02:24:20;96231.47;;;3.96;81.42
25080;BME280;13071;48.868;9.996;2023-03-17T02:26:49;96232.06;;;3.93;81.49
25080;BME280;13071;48.868;9.996;2023-03-17T02:29:19;96229.50;;;4.02;80.92
25080;BME280;13071;48.868;9.996;2023-03-17T02:31:46;96230.59;;;4.01;80.76
25080;BME280;13071;48.868;9.996;2023-03-17T02:34:13;96228.59;;;4.06;80.70
25080;BME280;13071;48.868;9.996;2023-03-17T02:36:40;96228.50;;;4.11;80.83
25080;BME280;13071;48.868;9.996;2023-03-17T02:39:08;96224.25;;;3.97;81.24
25080;BME280;13071;48.868;9.996;2023-03-17T02:41:35;96222.53;;;4.01;81.57
25080;BME280;13071;48.868;9.996;2023-03-17T02:44:02;96218.88;;;4.10;81.12
25080;BME280;13071;48.868;9.996;2023-03-17T02:46:29;96219.69;;;3.97;81.16
25080;BME280;13071;48.868;9.996;2023-03-17T02:48:55;96222.34;;;3.97;81.41
25080;BME280;13071;48.868;9.996;2023-03-17T02:51:22;96227.00;;;3.91;81.52
25080;BME280;13071;48.868;9.996;2023-03-17T02:53:49;96227.31;;;3.90;81.83
25080;BME280;13071;48.868;9.996;2023-03-17T02:56:17;96220.47;;;3.98;81.68
25080;BME280;13071;48.868;9.996;2023-03-17T02:58:43;96219.78;;;4.06;81.34
25080;BME280;13071;48.868;9.996;2023-03-17T03:01:10;96222.44;;;4.06;81.29
25080;BME280;13071;48.868;9.996;2023-03-17T03:03:37;96223.44;;;3.96;81.47
25080;BME280;13071;48.868;9.996;2023-03-17T03:06:04;96217.69;;;3.89;81.54
25080;BME280;13071;48.868;9.996;2023-03-17T03:08:31;96217.78;;;3.84;81.85
25080;BME280;13071;48.868;9.996;2023-03-17T03:10:57;96218.88;;;3.83;82.52
25080;BME280;13071;48.868;9.996;2023-03-17T03:13:28;96210.47;;;3.89;81.69
25080;BME280;13071;48.868;9.996;2023-03-17T03:15:54;96213.34;;;3.79;81.98
25080;BME280;13071;48.868;9.996;2023-03-17T03:18:21;96207.97;;;3.79;82.40
25080;BME280;13071;48.868;9.996;2023-03-17T03:20:48;96206.06;;;3.80;82.06
25080;BME280;13071;48.868;9.996;2023-03-17T03:23:15;96213.19;;;3.71;82.41
25080;BME280;13071;48.868;9.996;2023-03-17T03:25:42;96217.66;;;3.75;82.25
25080;BME280;13071;48.868;9.996;2023-03-17T03:28:08;96215.97;;;3.66;82.44
25080;BME280;13071;48.868;9.996;2023-03-17T03:30:36;96203.72;;;3.65;82.46
25080;BME280;13071;48.868;9.996;2023-03-17T03:33:03;96204.88;;;3.72;82.36
25080;BME280;13071;48.868;9.996;2023-03-17T03:35:31;96205.69;;;3.59;82.50
25080;BME280;13071;48.868;9.996;2023-03-17T03:37:59;96189.72;;;3.54;83.17
25080;BME280;13071;48.868;9.996;2023-03-17T03:40:25;96193.75;;;3.52;82.76
25080;BME280;13071;48.868;9.996;2023-03-17T03:42:52;96192.97;;;3.51;82.81
25080;BME280;13071;48.868;9.996;2023-03-17T03:45:19;96195.53;;;3.42;83.20
25080;BME280;13071;48.868;9.996;2023-03-17T03:47:46;96193.44;;;3.39;83.54
25080;BME280;13071;48.868;9.996;2023-03-17T03:50:13;96191.06;;;3.38;83.85
25080;BME280;13071;48.868;9.996;2023-03-17T03:52:40;96192.47;;;3.35;83.71
25080;BME280;13071;48.868;9.996;2023-03-17T03:55:07;96195.22;;;3.30;84.26
25080;BME280;13071;48.868;9.996;2023-03-17T03:57:34;96181.13;;;3.25;84.28
25080;BME280;13071;48.868;9.996;2023-03-17T04:00:02;96181.06;;;3.30;84.43
25080;BME280;13071;48.868;9.996;2023-03-17T04:02:30;96180.66;;;3.36;84.05
25080;BME280;13071;48.868;9.996;2023-03-17T04:04:58;96182.34;;;3.32;84.37
25080;BME280;13071;48.868;9.996;2023-03-17T04:07:26;96180.16;;;3.34;84.16
25080;BME280;13071;48.868;9.996;2023-03-17T04:09:52;96185.72;;;3.38;84.05
25080;BME280;13071;48.868;9.996;2023-03-17T04:12:19;96188.38;;;3.38;84.18
25080;BME280;13071;48.868;9.996;2023-03-17T04:14:46;96173.53;;;3.45;83.85
25080;BME280;13071;48.868;9.996;2023-03-17T04:17:13;96181.88;;;3.44;83.67
25080;BME280;13071;48.868;9.996;2023-03-17T04:19:39;96174.84;;;3.48;83.82
25080;BME280;13071;48.868;9.996;2023-03-17T04:22:10;96176.50;;;3.44;83.86
25080;BME280;13071;48.868;9.996;2023-03-17T04:24:37;96166.53;;;3.50;83.39
25080;BME280;13071;48.868;9.996;2023-03-17T04:27:04;96166.16;;;3.70;82.98
25080;BME280;13071;48.868;9.996;2023-03-17T04:29:32;96164.03;;;3.67;82.52
25080;BME280;13071;48.868;9.996;2023-03-17T04:31:58;96159.09;;;3.74;82.49
25080;BME280;13071;48.868;9.996;2023-03-17T04:34:25;96162.44;;;3.52;82.55
25080;BME280;13071;48.868;9.996;2023-03-17T04:36:52;96164.47;;;3.74;81.73
25080;BME280;13071;48.868;9.996;2023-03-17T04:39:20;96180.78;;;3.45;82.06
25080;BME280;13071;48.868;9.996;2023-03-17T04:41:47;96165.53;;;3.73;81.82
25080;BME280;13071;48.868;9.996;2023-03-17T04:44:14;96169.41;;;3.80;80.81
25080;BME280;13071;48.868;9.996;2023-03-17T04:46:41;96171.00;;;3.68;81.18
25080;BME280;13071;48.868;9.996;2023-03-17T04:49:07;96166.06;;;3.75;80.31
25080;BME280;13071;48.868;9.996;2023-03-17T04:51:34;96156.31;;;3.65;80.82
25080;BME280;13071;48.868;9.996;2023-03-17T04:54:01;96163.34;;;3.47;80.92
25080;BME280;13071;48.868;9.996;2023-03-17T04:56:29;96178.28;;;3.35;81.25
25080;BME280;13071;48.868;9.996;2023-03-17T04:58:55;96178.38;;;3.30;81.88
25080;BME280;13071;48.868;9.996;2023-03-17T05:01:22;96175.63;;;3.35;81.76
25080;BME280;13071;48.868;9.996;2023-03-17T05:03:49;96169.94;;;3.36;81.27
25080;BME280;13071;48.868;9.996;2023-03-17T05:06:15;96167.16;;;3.28;81.68
25080;BME280;13071;48.868;9.996;2023-03-17T05:08:42;96177.16;;;3.22;81.63
25080;BME280;13071;48.868;9.996;2023-03-17T05:11:10;96168.50;;;3.12;82.20
25080;BME280;13071;48.868;9.996;2023-03-17T05:13:38;96167.88;;;3.01;83.13
25080;BME280;13071;48.868;9.996;2023-03-17T05:16:07;96165.72;;;3.03;82.90
25080;BME280;13071;48.868;9.996;2023-03-17T05:18:34;96166.75;;;2.88;82.92
25080;BME280;13071;48.868;9.996;2023-03-17T05:21:00;96164.84;;;2.75;82.94
25080;BME280;13071;48.868;9.996;2023-03-17T05:23:27;96163.44;;;2.78;82.41
25080;BME280;13071;48.868;9.996;2023-03-17T05:25:54;96161.81;;;2.63;83.36
25080;BME280;13071;48.868;9.996;2023-03-17T05:28:21;96160.81;;;2.59;83.36
25080;BME280;13071;48.868;9.996;2023-03-17T05:30:50;96163.03;;;2.71;83.11
25080;BME280;13071;48.868;9.996;2023-03-17T05:33:17;96160.28;;;2.76;83.10
25080;BME280;13071;48.868;9.996;2023-03-17T05:35:44;96162.97;;;2.57;84.37
25080;BME280;13071;48.868;9.996;2023-03-17T05:38:12;96162.19;;;2.56;83.85
25080;BME280;13071;48.868;9.996;2023-03-17T05:40:40;96158.06;;;2.64;83.56
25080;BME280;13071;48.868;9.996;2023-03-17T05:43:07;96157.84;;;2.60;84.06
25080;BME280;13071;48.868;9.996;2023-03-17T05:45:34;96153.66;;;2.54;84.62
25080;BME280;13071;48.868;9.996;2023-03-17T05:48:03;96149.31;;;2.58;84.62
25080;BME280;13071;48.868;9.996;2023-03-17T05:50:29;96142.22;;;2.68;84.58
25080;BME280;13071;48.868;9.996;2023-03-17T05:52:56;96134.38;;;2.76;84.34
25080;BME280;13071;48.868;9.996;2023-03-17T05:55:23;96130.38;;;2.74;84.09
25080;BME280;13071;48.868;9.996;2023-03-17T05:57:49;96145.47;;;2.83;84.43
25080;BME280;13071;48.868;9.996;2023-03-17T06:00:17;96144.66;;;2.83;83.91
25080;BME280;13071;48.868;9.996;2023-03-17T06:02:45;96145.66;;;2.87;83.68
25080;BME280;13071;48.868;9.996;2023-03-17T06:05:14;96152.31;;;2.89;83.64
25080;BME280;13071;48.868;9.996;2023-03-17T06:07:40;96156.00;;;2.93;83.53
25080;BME280;13071;48.868;9.996;2023-03-17T06:10:08;96151.63;;;2.97;83.23
25080;BME280;13071;48.868;9.996;2023-03-17T06:12:36;96153.75;;;3.00;82.88
25080;BME280;13071;48.868;9.996;2023-03-17T06:15:03;96162.50;;;3.20;82.38
25080;BME280;13071;48.868;9.996;2023-03-17T06:17:30;96164.28;;;3.24;82.13
25080;BME280;13071;48.868;9.996;2023-03-17T06:19:56;96170.53;;;3.20;82.03
25080;BME280;13071;48.868;9.996;2023-03-17T06:22:24;96172.94;;;3.35;81.84
25080;BME280;13071;48.868;9.996;2023-03-17T06:24:51;96169.38;;;3.39;81.33
25080;BME280;13071;48.868;9.996;2023-03-17T06:27:18;96167.69;;;3.43;81.28
25080;BME280;13071;48.868;9.996;2023-03-17T06:29:45;96170.47;;;3.38;81.21
25080;BME280;13071;48.868;9.996;2023-03-17T06:32:12;96160.66;;;3.47;81.27
25080;BME280;13071;48.868;9.996;2023-03-17T06:34:38;96148.59;;;3.50;81.54
25080;BME280;13071;48.868;9.996;2023-03-17T06:37:06;96159.00;;;3.79;81.67
25080;BME280;13071;48.868;9.996;2023-03-17T06:39:34;96148.88;;;4.03;81.09
25080;BME280;13071;48.868;9.996;2023-03-17T06:42:01;96149.44;;;4.27;80.33
25080;BME280;13071;48.868;9.996;2023-03-17T06:44:28;96148.78;;;4.44;79.90
25080;BME280;13071;48.868;9.996;2023-03-17T06:46:55;96148.66;;;4.63;79.15
25080;BME280;13071;48.868;9.996;2023-03-17T06:49:21;96147.69;;;4.81;78.15
25080;BME280;13071;48.868;9.996;2023-03-17T06:51:48;96151.25;;;4.99;77.26
25080;BME280;13071;48.868;9.996;2023-03-17T06:54:14;96145.06;;;5.12;78.82
25080;BME280;13071;48.868;9.996;2023-03-17T06:56:43;96139.59;;;5.26;77.81
25080;BME280;13071;48.868;9.996;2023-03-17T06:59:10;96145.38;;;5.41;76.37
25080;BME280;13071;48.868;9.996;2023-03-17T07:01:37;96158.78;;;5.41;77.41
25080;BME280;13071;48.868;9.996;2023-03-17T07:04:04;96173.41;;;5.57;75.73
25080;BME280;13071;48.868;9.996;2023-03-17T07:06:31;96169.19;;;5.74;74.81
25080;BME280;13071;48.868;9.996;2023-03-17T07:08:58;96170.34;;;5.81;74.90
25080;BME280;13071;48.868;9.996;2023-03-17T07:11:24;96176.97;;;5.84;74.66
25080;BME280;13071;48.868;9.996;2023-03-17T07:13:52;96177.69;;;5.98;74.62
25080;BME280;13071;48.868;9.996;2023-03-17T07:16:19;96171.88;;;6.04;72.55
25080;BME280;13071;48.868;9.996;2023-03-17T07:18:46;96176.47;;;6.04;72.79
25080;BME280;13071;48.868;9.996;2023-03-17T07:21:13;96167.31;;;6.22;72.82
25080;BME280;13071;48.868;9.996;2023-03-17T07:23:40;96162.16;;;6.34;72.09
25080;BME280;13071;48.868;9.996;2023-03-17T07:26:06;96163.75;;;6.44;72.32
25080;BME280;13071;48.868;9.996;2023-03-17T07:28:34;96164.09;;;6.51;72.35
25080;BME280;13071;48.868;9.996;2023-03-17T07:31:02;96158.84;;;6.63;72.79
25080;BME280;13071;48.868;9.996;2023-03-17T07:33:32;96153.16;;;6.73;73.08
25080;BME280;13071;48.868;9.996;2023-03-17T07:35:58;96146.03;;;6.86;71.17
25080;BME280;13071;48.868;9.996;2023-03-17T07:38:25;96148.72;;;7.03;71.09
25080;BME280;13071;48.868;9.996;2023-03-17T07:40:52;96152.34;;;7.24;71.16
25080;BME280;13071;48.868;9.996;2023-03-17T07:43:19;96147.41;;;7.35;69.22
25080;BME280;13071;48.868;9.996;2023-03-17T07:45:45;96149.75;;;7.45;69.97
25080;BME280;13071;48.868;9.996;2023-03-17T07:48:13;96141.03;;;7.48;71.05
25080;BME280;13071;48.868;9.996;2023-03-17T07:50:40;96151.75;;;7.65;68.87
25080;BME280;13071;48.868;9.996;2023-03-17T07:53:07;96150.94;;;7.65;69.48
25080;BME280;13071;48.868;9.996;2023-03-17T07:55:34;96155.66;;;7.76;68.92
25080;BME280;13071;48.868;9.996;2023-03-17T07:58:01;96146.91;;;7.88;67.53
25080;BME280;13071;48.868;9.996;2023-03-17T08:00:28;96149.56;;;7.97;67.67
25080;BME280;13071;48.868;9.996;2023-03-17T08:02:54;96144.78;;;8.02;66.79
25080;BME280;13071;48.868;9.996;2023-03-17T08:05:23;96146.44;;;8.15;67.11
25080;BME280;13071;48.868;9.996;2023-03-17T08:07:49;96140.69;;;8.25;66.47
25080;BME280;13071;48.868;9.996;2023-03-17T08:10:16;96147.50;;;8.32;66.15
25080;BME280;13071;48.868;9.996;2023-03-17T08:12:43;96138.56;;;8.40;65.05
25080;BME280;13071;48.868;9.996;2023-03-17T08:15:10;96138.06;;;8.46;65.76
25080;BME280;13071;48.868;9.996;2023-03-17T08:17:37;96149.97;;;8.66;64.88
25080;BME280;13071;48.868;9.996;2023-03-17T08:20:05;96141.94;;;8.78;64.26
25080;BME280;13071;48.868;9.996;2023-03-17T08:22:33;96138.41;;;8.86;64.18
25080;BME280;13071;48.868;9.996;2023-03-17T08:24:59;96130.69;;;8.97;64.22
25080;BME280;13071;48.868;9.996;2023-03-17T08:27:26;96132.63;;;9.08;63.81
25080;BME280;13071;48.868;9.996;2023-03-17T08:29:53;96140.53;;;9.14;64.13
25080;BME280;13071;48.868;9.996;2023-03-17T08:32:20;96132.78;;;9.24;63.19
25080;BME280;13071;48.868;9.996;2023-03-17T08:34:46;96133.38;;;9.30;63.26
25080;BME280;13071;48.868;9.996;2023-03-17T08:37:13;96132.25;;;9.31;63.51
25080;BME280;13071;48.868;9.996;2023-03-17T08:39:41;96132.63;;;9.41;63.28
25080;BME280;13071;48.868;9.996;2023-03-17T08:42:09;96129.00;;;9.37;63.62
25080;BME280;13071;48.868;9.996;2023-03-17T08:44:36;96124.59;;;9.33;63.38
25080;BME280;13071;48.868;9.996;2023-03-17T08:47:02;96124.19;;;9.43;65.39
25080;BME280;13071;48.868;9.996;2023-03-17T08:49:29;96122.53;;;9.50;65.23
25080;BME280;13071;48.868;9.996;2023-03-17T08:51:59;96121.09;;;9.65;63.45
25080;BME280;13071;48.868;9.996;2023-03-17T08:54:25;96120.88;;;9.82;63.87
25080;BME280;13071;48.868;9.996;2023-03-17T08:56:54;96110.63;;;10.00;63.75
25080;BME280;13071;48.868;9.996;2023-03-17T08:59:20;96108.59;;;10.09;64.94
25080;BME280;13071;48.868;9.996;2023-03-17T09:01:47;96107.38;;;10.31;64.59
25080;BME280;13071;48.868;9.996;2023-03-17T09:04:14;96101.38;;;10.37;61.53
25080;BME280;13071;48.868;9.996;2023-03-17T09:06:41;96105.84;;;10.58;63.46
25080;BME280;13071;48.868;9.996;2023-03-17T09:09:08;96109.75;;;10.72;62.23
25080;BME280;13071;48.868;9.996;2023-03-17T09:11:35;96107.94;;;10.76;61.20
25080;BME280;13071;48.868;9.996;2023-03-17T09:14:03;96105.63;;;10.91;61.97
25080;BME280;13071;48.868;9.996;2023-03-17T09:16:29;96105.94;;;11.01;60.44
25080;BME280;13071;48.868;9.996;2023-03-17T09:18:58;96109.66;;;11.09;61.33
25080;BME280;13071;48.868;9.996;2023-03-17T09:21:25;96104.53;;;11.19;60.97
25080;BME280;13071;48.868;9.996;2023-03-17T09:23:52;96107.41;;;11.26;61.24
25080;BME280;13071;48.868;9.996;2023-03-17T09:26:18;96102.97;;;11.34;62.95
25080;BME280;13071;48.868;9.996;2023-03-17T09:28:45;96102.81;;;11.43;61.45
25080;BME280;13071;48.868;9.996;2023-03-17T09:31:13;96100.66;;;11.64;61.00
25080;BME280;13071;48.868;9.996;2023-03-17T09:33:40;96093.25;;;11.77;60.80
25080;BME280;13071;48.868;9.996;2023-03-17T09:36:08;96100.84;;;11.87;59.25
25080;BME280;13071;48.868;9.996;2023-03-17T09:38:35;96097.63;;;11.97;57.87
25080;BME280;13071;48.868;9.996;2023-03-17T09:41:15;96102.94;;;12.09;58.83
25080;BME280;13071;48.868;9.996;2023-03-17T09:43:53;96106.69;;;12.20;58.69
25080;BME280;13071;48.868;9.996;2023-03-17T09:46:30;96103.16;;;12.35;59.16
25080;BME280;13071;48.868;9.996;2023-03-17T09:49:02;96098.41;;;12.48;58.79
25080;BME280;13071;48.868;9.996;2023-03-17T09:51:33;96089.41;;;12.63;57.76
25080;BME280;13071;48.868;9.996;2023-03-17T09:54:02;96085.78;;;12.75;57.35
25080;BME280;13071;48.868;9.996;2023-03-17T09:56:31;96088.00;;;12.69;57.21
25080;BME280;13071;48.868;9.996;2023-03-17T09:59:02;96090.94;;;12.80;57.19
25080;BME280;13071;48.868;9.996;2023-03-17T10:01:31;96086.50;;;12.91;55.70
25080;BME280;13071;48.868;9.996;2023-03-17T10:03:58;96079.97;;;13.11;53.68
25080;BME280;13071;48.868;9.996;2023-03-17T10:06:33;96074.28;;;13.01;54.13
25080;BME280;13071;48.868;9.996;2023-03-17T10:09:10;96068.38;;;13.14;55.47
25080;BME280;13071;48.868;9.996;2023-03-17T10:11:40;96072.63;;;13.34;54.45
25080;BME280;13071;48.868;9.996;2023-03-17T10:14:17;96076.34;;;13.46;52.74
25080;BME280;13071;48.868;9.996;2023-03-17T10:16:52;96073.50;;;13.61;53.69
25080;BME280;13071;48.868;9.996;2023-03-17T10:19:26;96062.34;;;13.66;54.24
25080;BME280;13071;48.868;9.996;2023-03-17T10:21:56;96067.13;;;13.76;53.94
25080;BME280;13071;48.868;9.996;2023-03-17T10:24:24;96064.50;;;13.80;54.91
25080;BME280;13071;48.868;9.996;2023-03-17T10:26:54;96054.09;;;14.12;53.01
25080;BME280;13071;48.868;9.996;2023-03-17T10:29:23;96059.50;;;14.08;54.27
25080;BME280;13071;48.868;9.996;2023-03-17T10:31:53;96058.50;;;14.20;54.36
25080;BME280;13071;48.868;9.996;2023-03-17T10:34:22;96061.84;;;14.10;53.82
25080;BME280;13071;48.868;9.996;2023-03-17T10:36:53;96055.00;;;14.19;53.97
25080;BME280;13071;48.868;9.996;2023-03-17T10:39:22;96054.25;;;14.22;54.31
25080;BME280;13071;48.868;9.996;2023-03-17T10:41:54;96060.66;;;14.34;53.72
25080;BME280;13071;48.868;9.996;2023-03-17T10:44:28;96055.59;;;14.36;52.32
25080;BME280;13071;48.868;9.996;2023-03-17T10:47:02;96060.28;;;14.35;53.86
25080;BME280;13071;48.868;9.996;2023-03-17T10:49:34;96066.22;;;14.41;54.86
25080;BME280;13071;48.868;9.996;2023-03-17T10:52:05;96059.41;;;14.54;53.37
25080;BME280;13071;48.868;9.996;2023-03-17T10:54:34;96058.63;;;14.83;52.03
25080;BME280;13071;48.868;9.996;2023-03-17T10:57:05;96052.06;;;14.58;49.87
25080;BME280;13071;48.868;9.996;2023-03-17T10:59:37;96048.69;;;14.68;49.28
25080;BME280;13071;48.868;9.996;2023-03-17T11:02:18;96048.91;;;14.86;49.52
25080;BME280;13071;48.868;9.996;2023-03-17T11:04:45;96042.25;;;14.80;48.96
25080;BME280;13071;48.868;9.996;2023-03-17T11:07:16;96053.75;;;14.99;49.08
25080;BME280;13071;48.868;9.996;2023-03-17T11:09:47;96050.63;;;15.01;48.20
25080;BME280;13071;48.868;9.996;2023-03-17T11:12:22;96048.38;;;15.06;48.55
25080;BME280;13071;48.868;9.996;2023-03-17T11:14:53;96045.69;;;15.10;49.61
25080;BME280;13071;48.868;9.996;2023-03-17T11:17:32;96055.63;;;15.29;48.08
25080;BME280;13071;48.868;9.996;2023-03-17T11:20:13;96046.38;;;15.37;47.37
25080;BME280;13071;48.868;9.996;2023-03-17T11:22:52;96037.84;;;15.42;46.50
25080;BME280;13071;48.868;9.996;2023-03-17T11:25:21;96031.97;;;15.40;47.99
25080;BME280;13071;48.868;9.996;2023-03-17T11:27:52;96024.41;;;15.60;48.43
25080;BME280;13071;48.868;9.996;2023-03-17T11:30:27;96022.91;;;15.66;46.92
25080;BME280;13071;48.868;9.996;2023-03-17T11:33:04;96015.25;;;15.82;49.92
25080;BME280;13071;48.868;9.996;2023-03-17T11:35:44;96015.00;;;16.01;48.30
25080;BME280;13071;48.868;9.996;2023-03-17T11:38:20;96019.69;;;16.04;46.25
25080;BME280;13071;48.868;9.996;2023-03-17T11:41:01;96012.78;;;16.17;46.40
25080;BME280;13071;48.868;9.996;2023-03-17T11:43:36;96014.72;;;16.20;48.34
25080;BME280;13071;48.868;9.996;2023-03-17T11:46:12;96018.53;;;16.09;48.13
25080;BME280;13071;48.868;9.996;2023-03-17T11:48:47;96013.91;;;16.13;47.24
25080;BME280;13071;48.868;9.996;2023-03-17T11:51:22;96016.75;;;16.30;45.89
25080;BME280;13071;48.868;9.996;2023-03-17T11:54:07;96003.44;;;16.22;46.59
25080;BME280;13071;48.868;9.996;2023-03-17T11:56:39;95999.44;;;16.09;46.88
25080;BME280;13071;48.868;9.996;2023-03-17T11:59:14;95994.38;;;16.07;47.67
25080;BME280;13071;48.868;9.996;2023-03-17T12:01:50;95995.69;;;16.27;47.25
25080;BME280;13071;48.868;9.996;2023-03-17T12:04:25;95990.97;;;16.24;45.59
25080;BME280;13071;48.868;9.996;2023-03-17T12:06:58;95997.28;;;16.35;47.14
25080;BME280;13071;48.868;9.996;2023-03-17T12:09:30;95988.69;;;16.37;46.96
25080;BME280;13071;48.868;9.996;2023-03-17T12:11:58;95991.88;;;16.46;47.09
25080;BME280;13071;48.868;9.996;2023-03-17T12:14:28;95995.03;;;16.55;46.59
25080;BME280;13071;48.868;9.996;2023-03-17T12:17:02;95990.81;;;16.61;46.04
25080;BME280;13071;48.868;9.996;2023-03-17T12:19:38;95977.16;;;16.68;45.10
25080;BME280;13071;48.868;9.996;2023-03-17T12:22:12;95972.09;;;16.77;45.75
25080;BME280;13071;48.868;9.996;2023-03-17T12:24:46;95975.28;;;16.87;44.68
25080;BME280;13071;48.868;9.996;2023-03-17T12:27:20;95969.00;;;16.72;45.52
25080;BME280;13071;48.868;9.996;2023-03-17T12:29:51;95977.63;;;16.92;47.64
25080;BME280;13071;48.868;9.996;2023-03-17T12:32:23;95972.22;;;17.16;47.02
25080;BME280;13071;48.868;9.996;2023-03-17T12:34:54;95968.75;;;17.26;43.74
25080;BME280;13071;48.868;9.996;2023-03-17T12:37:22;95963.25;;;17.23;45.42
25080;BME280;13071;48.868;9.996;2023-03-17T12:39:53;95948.81;;;17.30;46.27
25080;BME280;13071;48.868;9.996;2023-03-17T12:42:35;95951.13;;;17.27;46.76
25080;BME280;13071;48.868;9.996;2023-03-17T12:45:24;95944.06;;;16.98;47.82
25080;BME280;13071;48.868;9.996;2023-03-17T12:51:01;95945.22;;;16.97;46.67
25080;BME280;13071;48.868;9.996;2023-03-17T12:53:35;95949.97;;;17.14;45.98
25080;BME280;13071;48.868;9.996;2023-03-17T12:56:10;95942.91;;;16.99;43.76
25080;BME280;13071;48.868;9.996;2023-03-17T12:58:44;95938.25;;;17.14;44.46
25080;BME280;13071;48.868;9.996;2023-03-17T13:01:17;95942.94;;;17.24;44.78
25080;BME280;13071;48.868;9.996;2023-03-17T13:04:01;95940.97;;;17.14;45.79
25080;BME280;13071;48.868;9.996;2023-03-17T13:06:37;95928.50;;;17.16;45.12
25080;BME280;13071;48.868;9.996;2023-03-17T13:12:53;95937.47;;;17.27;43.50
25080;BME280;13071;48.868;9.996;2023-03-17T13:15:25;95935.91;;;17.23;44.56
25080;BME280;13071;48.868;9.996;2023-03-17T13:18:21;95935.13;;;17.30;45.49
25080;BME280;13071;48.868;9.996;2023-03-17T13:20:51;95923.81;;;17.38;43.16
25080;BME280;13071;48.868;9.996;2023-03-17T13:23:37;95927.72;;;17.34;44.21
25080;BME280;13071;48.868;9.996;2023-03-17T13:26:05;95925.38;;;17.36;46.03